createdAt,value
2022-12-23T00:01:24.057Z,26.60
2022-12-23T00:03:52.169Z,27.42
2022-12-23T00:06:21.067Z,28.35
2022-12-23T00:08:48.962Z,26.38
2022-12-23T00:11:19.648Z,27.92
2022-12-23T00:14:05.786Z,19.02
2022-12-23T00:16:36.581Z,27.73
2022-12-23T00:19:05.260Z,27.75
2022-12-23T00:21:33.361Z,20.38
2022-12-23T00:24:01.260Z,32.90
2022-12-23T00:26:30.634Z,28.30
2022-12-23T00:28:59.331Z,26.90
2022-12-23T00:31:27.551Z,29.95
2022-12-23T00:33:55.567Z,27.08
2022-12-23T00:36:25.316Z,23.63
2022-12-23T00:39:10.654Z,27.60
2022-12-23T00:41:57.376Z,26.90
2022-12-23T00:44:25.716Z,32.17
2022-12-23T00:46:53.585Z,32.22
2022-12-23T00:49:39.314Z,27.75
2022-12-23T00:52:08.797Z,26.58
2022-12-23T00:54:37.156Z,26.83
2022-12-23T00:57:06.457Z,29.55
2022-12-23T00:59:34.550Z,25.83
2022-12-23T01:02:20.540Z,30.02
2022-12-23T01:05:06.242Z,27.88
2022-12-23T01:07:34.359Z,24.38
2022-12-23T01:10:02.420Z,24.05
2022-12-23T01:12:31.694Z,23.13
2022-12-23T01:14:59.637Z,27.50
2022-12-23T01:17:27.592Z,26.35
2022-12-23T01:19:55.532Z,26.00
2022-12-23T01:22:23.446Z,30.50
2022-12-23T01:24:51.390Z,22.00
2022-12-23T01:27:19.424Z,26.75
2022-12-23T01:29:48.782Z,24.02
2022-12-23T01:32:16.692Z,26.35
2022-12-23T01:34:44.781Z,27.00
2022-12-23T01:37:12.717Z,27.10
2022-12-23T01:39:40.680Z,21.27
2022-12-23T01:42:31.317Z,25.00
2022-12-23T01:45:02.065Z,28.67
2022-12-23T01:47:33.997Z,27.77
2022-12-23T01:50:08.036Z,29.40
2022-12-23T01:52:41.287Z,26.95
2022-12-23T01:55:10.492Z,30.60
2022-12-23T01:57:42.037Z,25.92
2022-12-23T02:00:32.336Z,22.17
2022-12-23T02:03:18.164Z,24.83
2022-12-23T02:05:47.153Z,23.85
2022-12-23T02:08:33.936Z,24.33
2022-12-23T02:11:31.404Z,31.95
2022-12-23T02:14:27.473Z,30.38
2022-12-23T02:17:03.823Z,24.23
2022-12-23T02:19:51.824Z,21.30
2022-12-23T02:22:36.118Z,23.77
2022-12-23T02:25:28.673Z,31.40
2022-12-23T02:28:09.301Z,28.63
2022-12-23T02:30:44.368Z,32.22
2022-12-23T02:33:29.024Z,28.52
2022-12-23T02:36:01.940Z,23.85
2022-12-23T02:38:33.243Z,24.88
2022-12-23T02:41:08.420Z,31.42
2022-12-23T02:43:42.154Z,21.05
2022-12-23T02:46:14.208Z,23.02
2022-12-23T02:48:46.316Z,33.45
2022-12-23T02:51:15.693Z,23.00
2022-12-23T02:53:47.979Z,27.35
2022-12-23T02:56:16.896Z,30.02
2022-12-23T02:58:48.652Z,35.78
2022-12-23T03:01:19.128Z,36.85
2022-12-23T03:03:48.764Z,36.03
2022-12-23T03:06:22.287Z,38.35
2022-12-23T03:08:51.337Z,31.83
2022-12-23T03:11:19.623Z,33.30
2022-12-23T03:14:02.961Z,35.05
2022-12-23T03:16:37.707Z,29.70
2022-12-23T03:19:10.269Z,37.75
2022-12-23T03:21:42.053Z,38.00
2022-12-23T03:24:22.064Z,31.17
2022-12-23T03:26:53.341Z,36.20
2022-12-23T03:29:26.248Z,34.15
2022-12-23T03:34:27.614Z,26.25
2022-12-23T03:36:57.799Z,37.75
2022-12-23T03:39:29.562Z,33.08
2022-12-23T03:42:01.606Z,38.03
2022-12-23T03:44:31.449Z,35.47
2022-12-23T03:47:05.412Z,45.45
2022-12-23T03:49:36.385Z,30.55
2022-12-23T03:52:07.513Z,35.88
2022-12-23T03:54:39.963Z,36.63
2022-12-23T03:57:08.770Z,38.53
2022-12-23T03:59:39.685Z,43.38
2022-12-23T04:02:12.134Z,39.78
2022-12-23T04:04:50.564Z,37.40
2022-12-23T04:07:20.462Z,36.80
2022-12-23T04:09:48.428Z,36.83
2022-12-23T04:12:16.398Z,39.67
2022-12-23T04:14:47.400Z,35.45
2022-12-23T04:17:17.303Z,32.72
2022-12-23T04:19:46.352Z,40.00
2022-12-23T04:22:14.308Z,34.85
2022-12-23T04:24:42.409Z,38.17
2022-12-23T04:27:12.829Z,38.47
2022-12-23T04:29:40.763Z,41.90
2022-12-23T04:32:09.120Z,36.40
2022-12-23T04:34:38.455Z,36.28
2022-12-23T04:37:06.332Z,34.13
2022-12-23T04:39:34.254Z,39.22
2022-12-23T04:42:02.228Z,41.78
2022-12-23T04:44:30.164Z,47.25
2022-12-23T04:46:58.243Z,41.67
2022-12-23T04:49:26.260Z,49.78
2022-12-23T04:51:55.504Z,37.97
2022-12-23T04:54:23.537Z,44.30
2022-12-23T04:56:51.586Z,47.42
2022-12-23T04:59:19.603Z,41.83
2022-12-23T05:01:48.022Z,51.70
2022-12-23T05:04:16.264Z,46.10
2022-12-23T05:06:44.275Z,43.35
2022-12-23T05:09:13.581Z,49.80
2022-12-23T05:11:42.553Z,45.63
2022-12-23T05:14:10.759Z,40.10
2022-12-23T05:16:38.872Z,47.58
2022-12-23T05:19:07.010Z,42.63
2022-12-23T05:21:35.045Z,46.58
2022-12-23T05:24:02.902Z,38.05
2022-12-23T05:26:32.171Z,52.95
2022-12-23T05:29:00.120Z,45.33
2022-12-23T05:31:28.019Z,51.65
2022-12-23T05:33:58.442Z,54.78
2022-12-23T05:36:30.246Z,52.00
2022-12-23T05:38:58.425Z,43.65
2022-12-23T05:41:26.285Z,51.50
2022-12-23T05:43:55.562Z,42.78
2022-12-23T05:46:26.908Z,50.35
2022-12-23T05:48:55.485Z,54.30
2022-12-23T05:51:23.525Z,49.38
2022-12-23T05:53:51.488Z,49.80
2022-12-23T05:56:19.354Z,48.47
2022-12-23T05:58:47.492Z,43.80
2022-12-23T06:01:16.982Z,72.03
2022-12-23T06:03:45.025Z,51.95
2022-12-23T06:06:13.076Z,54.75
2022-12-23T06:08:41.177Z,59.55
2022-12-23T06:11:09.127Z,66.60
2022-12-23T06:13:37.024Z,53.90
2022-12-23T06:16:05.563Z,35.85
2022-12-23T06:18:34.847Z,56.95
2022-12-23T06:21:02.847Z,55.72
2022-12-23T06:23:30.811Z,46.15
2022-12-23T06:26:02.727Z,51.72
2022-12-23T06:28:30.989Z,55.08
2022-12-23T06:30:59.469Z,45.90
2022-12-23T06:33:27.553Z,32.00
2022-12-23T06:35:57.123Z,62.05
2022-12-23T06:38:25.268Z,60.67
2022-12-23T06:40:53.363Z,56.47
2022-12-23T06:43:21.437Z,64.47
2022-12-23T06:45:50.126Z,52.67
2022-12-23T06:48:18.661Z,73.60
2022-12-23T06:50:47.249Z,64.07
2022-12-23T06:53:17.220Z,50.38
2022-12-23T06:55:45.337Z,62.83
2022-12-23T06:58:13.416Z,67.75
2022-12-23T07:00:41.538Z,56.47
2022-12-23T07:03:09.726Z,73.07
2022-12-23T07:05:38.013Z,56.67
2022-12-23T07:08:06.619Z,66.00
2022-12-23T07:10:36.412Z,65.40
2022-12-23T07:13:04.611Z,35.92
2022-12-23T07:15:32.841Z,51.28
2022-12-23T07:18:00.838Z,46.72
2022-12-23T07:20:28.895Z,43.95
2022-12-23T07:22:57.660Z,68.28
2022-12-23T07:25:26.070Z,68.15
2022-12-23T07:27:55.621Z,48.50
2022-12-23T07:30:24.101Z,62.83
2022-12-23T07:32:52.223Z,72.18
2022-12-23T07:35:20.629Z,67.25
2022-12-23T07:37:52.867Z,65.35
2022-12-23T07:40:20.852Z,68.53
2022-12-23T07:42:49.930Z,65.40
2022-12-23T07:45:19.395Z,60.05
2022-12-23T07:47:47.474Z,68.90
2022-12-23T07:50:17.263Z,69.40
2022-12-23T07:52:45.450Z,59.28
2022-12-23T07:55:13.925Z,65.82
2022-12-23T07:57:42.059Z,67.32
2022-12-23T08:00:12.355Z,60.38
2022-12-23T08:02:42.055Z,59.65
2022-12-23T08:05:10.711Z,58.10
2022-12-23T08:07:38.818Z,62.75
2022-12-23T08:10:08.666Z,61.97
2022-12-23T08:12:36.778Z,57.10
2022-12-23T08:15:05.366Z,39.17
2022-12-23T08:17:33.394Z,39.92
2022-12-23T08:20:02.615Z,54.20
2022-12-23T08:22:32.230Z,59.20
2022-12-23T08:25:00.405Z,63.40
2022-12-23T08:27:28.466Z,59.15
2022-12-23T08:29:56.435Z,54.90
2022-12-23T08:32:28.028Z,57.10
2022-12-23T08:34:57.436Z,61.47
2022-12-23T08:37:26.864Z,61.75
2022-12-23T08:39:54.889Z,62.22
2022-12-23T08:42:23.039Z,54.28
2022-12-23T08:44:51.034Z,56.42
2022-12-23T08:47:18.927Z,52.53
2022-12-23T08:49:46.978Z,54.75
2022-12-23T08:52:14.909Z,48.67
2022-12-23T08:54:44.266Z,46.53
2022-12-23T08:57:12.132Z,50.63
2022-12-23T08:59:39.976Z,48.50
2022-12-23T09:02:07.948Z,49.42
2022-12-23T09:04:37.309Z,45.08
2022-12-23T09:07:05.177Z,39.35
2022-12-23T09:09:33.075Z,35.92
2022-12-23T09:12:02.228Z,40.47
2022-12-23T09:14:30.113Z,44.65
2022-12-23T09:16:57.964Z,47.35
2022-12-23T09:19:25.909Z,39.50
2022-12-23T09:21:53.722Z,38.72
2022-12-23T09:24:21.557Z,38.03
2022-12-23T09:26:49.360Z,40.58
2022-12-23T09:29:18.545Z,34.80
2022-12-23T09:31:46.482Z,41.10
2022-12-23T09:34:14.431Z,38.13
2022-12-23T09:36:42.246Z,36.88
2022-12-23T09:39:11.182Z,42.90
2022-12-23T09:41:50.113Z,31.20
2022-12-23T09:44:39.388Z,32.97
2022-12-23T09:47:11.990Z,37.97
2022-12-23T09:49:45.871Z,44.22
2022-12-23T09:52:17.413Z,36.47
2022-12-23T09:54:49.467Z,33.67
2022-12-23T09:57:23.119Z,34.07
2022-12-23T10:00:01.881Z,31.95
2022-12-23T10:02:38.382Z,30.95
2022-12-23T10:05:15.068Z,23.27
2022-12-23T10:07:45.507Z,31.13
2022-12-23T10:10:18.124Z,25.88
2022-12-23T10:12:47.775Z,24.13
2022-12-23T10:15:23.915Z,32.35
2022-12-23T10:17:54.242Z,32.15
2022-12-23T10:20:33.248Z,25.50
2022-12-23T10:23:01.101Z,32.40
2022-12-23T10:25:33.977Z,28.23
2022-12-23T10:28:01.921Z,21.48
2022-12-23T10:30:57.234Z,26.08
2022-12-23T10:33:24.990Z,18.77
2022-12-23T10:36:01.656Z,19.48
2022-12-23T10:38:36.947Z,19.13
2022-12-23T10:41:12.861Z,23.88
2022-12-23T10:43:52.707Z,17.80
2022-12-23T10:46:26.316Z,20.90
2022-12-23T10:49:00.701Z,22.13
2022-12-23T10:51:32.624Z,27.77
2022-12-23T10:54:03.175Z,23.38
2022-12-23T10:56:31.489Z,16.38
2022-12-23T10:59:02.740Z,16.75
2022-12-23T11:01:32.694Z,19.48
2022-12-23T11:04:05.837Z,19.88
2022-12-23T11:06:37.619Z,16.00
2022-12-23T11:09:06.953Z,18.63
2022-12-23T11:11:59.819Z,17.90
2022-12-23T11:14:37.531Z,16.83
2022-12-23T11:17:20.322Z,15.20
2022-12-23T11:19:48.231Z,16.33
2022-12-23T11:22:24.205Z,15.73
2022-12-23T11:24:52.167Z,14.52
2022-12-23T11:27:20.863Z,15.48
2022-12-23T11:29:50.666Z,15.70
2022-12-23T11:32:22.915Z,16.48
2022-12-23T11:34:51.399Z,17.05
2022-12-23T11:37:26.288Z,15.00
2022-12-23T11:39:54.551Z,10.02
2022-12-23T11:42:27.288Z,13.20
2022-12-23T11:44:56.162Z,15.40
2022-12-23T11:47:30.835Z,12.60
2022-12-23T11:49:59.862Z,12.98
2022-12-23T11:52:29.041Z,10.70
2022-12-23T11:54:58.302Z,14.35
2022-12-23T11:57:33.847Z,10.70
2022-12-23T12:00:05.485Z,13.43
2022-12-23T12:02:37.517Z,12.68
2022-12-23T12:05:08.117Z,13.13
2022-12-23T12:07:36.865Z,16.20
2022-12-23T12:10:06.237Z,12.63
2022-12-23T12:12:34.336Z,11.68
2022-12-23T12:15:02.209Z,12.55
2022-12-23T12:17:36.985Z,7.65
2022-12-23T12:20:07.430Z,9.13
2022-12-23T12:22:39.776Z,8.57
2022-12-23T12:25:17.851Z,13.45
2022-12-23T12:27:49.300Z,9.18
2022-12-23T12:30:20.382Z,7.45
2022-12-23T12:32:55.101Z,8.90
2022-12-23T12:35:28.874Z,10.05
2022-12-23T12:37:58.919Z,9.32
2022-12-23T12:40:32.060Z,6.70
2022-12-23T12:43:05.013Z,4.78
2022-12-23T12:48:18.655Z,7.18
2022-12-23T12:50:59.384Z,7.15
2022-12-23T12:53:28.825Z,5.55
2022-12-23T12:55:59.442Z,7.10
2022-12-23T12:58:27.457Z,5.95
2022-12-23T13:01:06.614Z,5.40
2022-12-23T13:03:53.752Z,5.68
2022-12-23T13:06:25.939Z,8.32
2022-12-23T13:09:01.679Z,8.88
2022-12-23T13:11:40.389Z,8.45
2022-12-23T13:14:13.863Z,6.50
2022-12-23T13:16:47.582Z,5.22
2022-12-23T13:19:23.757Z,5.03
2022-12-23T13:21:53.563Z,4.78
2022-12-23T13:24:25.968Z,6.43
2022-12-23T13:27:01.899Z,13.82
2022-12-23T13:29:46.951Z,4.72
2022-12-23T13:32:23.302Z,12.15
2022-12-23T13:34:59.132Z,5.30
2022-12-23T13:37:31.436Z,8.13
2022-12-23T13:40:08.299Z,6.68
2022-12-23T13:42:39.142Z,5.85
2022-12-23T13:45:12.976Z,5.25
2022-12-23T13:47:47.535Z,10.48
2022-12-23T13:50:19.208Z,6.45
2022-12-23T13:52:59.711Z,7.68
2022-12-23T13:55:42.498Z,6.97
2022-12-23T13:58:12.652Z,7.00
2022-12-23T14:00:40.690Z,6.32
2022-12-23T14:03:23.956Z,6.35
2022-12-23T14:05:53.918Z,6.70
2022-12-23T14:08:28.603Z,7.13
2022-12-23T14:10:59.943Z,9.48
2022-12-23T14:13:29.765Z,6.70
2022-12-23T14:16:15.113Z,6.05
2022-12-23T14:19:02.748Z,5.07
2022-12-23T14:21:38.835Z,8.57
2022-12-23T14:24:25.079Z,6.43
2022-12-23T14:27:12.758Z,6.25
2022-12-23T14:29:49.146Z,9.23
2022-12-23T14:32:21.863Z,10.52
2022-12-23T14:35:18.462Z,7.25
2022-12-23T14:38:22.421Z,9.82
2022-12-23T14:41:01.194Z,8.30
2022-12-23T14:43:34.409Z,12.55
2022-12-23T14:46:04.808Z,11.27
2022-12-23T14:49:37.537Z,9.73
2022-12-23T14:52:18.423Z,10.57
2022-12-23T14:55:13.201Z,7.45
2022-12-23T14:57:36.161Z,7.30
2022-12-23T15:00:05.756Z,10.15
2022-12-23T15:02:37.177Z,10.10
2022-12-23T15:05:05.698Z,8.40
2022-12-23T15:07:35.652Z,11.48
2022-12-23T15:10:07.173Z,10.15
2022-12-23T15:12:37.741Z,13.80
2022-12-23T15:15:08.229Z,14.25
2022-12-23T15:17:37.673Z,9.18
2022-12-23T15:20:13.842Z,13.43
2022-12-23T15:22:43.603Z,13.85
2022-12-23T15:25:23.114Z,11.65
2022-12-23T15:27:55.917Z,13.10
2022-12-23T15:30:29.183Z,16.40
2022-12-23T15:33:00.078Z,13.35
2022-12-23T15:35:32.398Z,11.63
2022-12-23T15:38:01.222Z,13.18
2022-12-23T15:40:32.637Z,13.38
2022-12-23T15:43:01.431Z,16.10
2022-12-23T15:45:35.867Z,14.23
2022-12-23T15:48:04.765Z,14.77
2022-12-23T15:50:41.661Z,12.27
2022-12-23T15:53:10.863Z,13.82
2022-12-23T15:55:41.301Z,12.48
2022-12-23T15:58:09.558Z,8.32
2022-12-23T16:00:39.873Z,10.23
2022-12-23T16:03:17.846Z,9.68
2022-12-23T16:05:45.839Z,12.23
2022-12-23T16:08:29.063Z,16.70
2022-12-23T16:11:07.552Z,14.35
2022-12-23T16:13:35.442Z,11.85
2022-12-23T16:16:19.951Z,18.35
2022-12-23T16:18:48.268Z,13.85
2022-12-23T16:21:16.461Z,14.57
2022-12-23T16:23:50.253Z,9.43
2022-12-23T16:26:19.975Z,14.68
2022-12-23T16:28:49.432Z,13.75
2022-12-23T16:31:19.012Z,12.70
2022-12-23T16:33:50.289Z,16.20
2022-12-23T16:36:24.263Z,12.57
2022-12-23T16:38:53.804Z,12.05
2022-12-23T16:41:23.039Z,11.10
2022-12-23T16:43:52.632Z,15.57
2022-12-23T16:46:22.845Z,14.68
2022-12-23T16:48:52.551Z,12.30
2022-12-23T16:51:22.197Z,14.23
2022-12-23T16:53:50.745Z,14.10
2022-12-23T16:56:21.517Z,18.17
2022-12-23T16:58:50.824Z,16.55
2022-12-23T17:01:23.154Z,15.75
2022-12-23T17:03:51.393Z,17.13
2022-12-23T17:06:20.177Z,15.25
2022-12-23T17:08:48.050Z,19.27
2022-12-23T17:11:17.157Z,27.85
2022-12-23T17:13:45.765Z,20.02
2022-12-23T17:16:17.803Z,19.83
2022-12-23T17:18:45.725Z,21.70
2022-12-23T17:21:22.827Z,25.77
2022-12-23T17:23:51.383Z,22.98
2022-12-23T17:26:19.399Z,18.50
2022-12-23T17:28:47.322Z,24.58
2022-12-23T17:31:24.311Z,20.02
2022-12-23T17:33:54.662Z,21.77
2022-12-23T17:36:22.614Z,21.90
2022-12-23T17:38:50.658Z,21.27
2022-12-23T17:41:23.387Z,21.35
2022-12-23T17:43:51.227Z,22.52
2022-12-23T17:46:20.956Z,23.35
2022-12-23T17:48:48.902Z,18.63
2022-12-23T17:51:18.083Z,22.80
2022-12-23T17:53:46.844Z,20.60
2022-12-23T17:56:17.930Z,22.98
2022-12-23T17:58:47.000Z,22.23
2022-12-23T18:01:17.975Z,19.08
2022-12-23T18:03:47.712Z,23.92
2022-12-23T18:06:17.191Z,17.50
2022-12-23T18:08:45.206Z,21.73
2022-12-23T18:11:20.235Z,22.90
2022-12-23T18:13:48.510Z,18.60
2022-12-23T18:16:16.355Z,21.88
2022-12-23T18:18:46.838Z,19.48
2022-12-23T18:21:21.717Z,24.08
2022-12-23T18:23:49.575Z,20.92
2022-12-23T18:26:17.445Z,19.17
2022-12-23T18:28:45.779Z,17.60
2022-12-23T18:31:16.548Z,19.55
2022-12-23T18:33:44.529Z,19.85
2022-12-23T18:36:22.745Z,24.52
2022-12-23T18:38:52.057Z,21.42
2022-12-23T18:41:20.170Z,25.55
2022-12-23T18:43:48.218Z,22.73
2022-12-23T18:46:16.822Z,22.27
2022-12-23T18:48:44.804Z,23.17
2022-12-23T18:51:14.753Z,26.15
2022-12-23T18:53:44.307Z,29.38
2022-12-23T18:56:14.814Z,30.88
2022-12-23T18:58:42.877Z,31.95
2022-12-23T19:01:12.724Z,58.15
2022-12-23T19:03:40.654Z,25.13
2022-12-23T19:06:09.724Z,38.90
2022-12-23T19:08:38.326Z,38.85
2022-12-23T19:11:12.434Z,46.97
2022-12-23T19:13:40.342Z,31.85
2022-12-23T19:16:08.367Z,28.75
2022-12-23T19:18:36.277Z,30.08
2022-12-23T19:21:05.142Z,38.22
2022-12-23T19:23:33.168Z,37.00
2022-12-23T19:26:01.076Z,33.28
2022-12-23T19:28:30.375Z,40.70
2022-12-23T19:30:58.325Z,69.28
2022-12-23T19:33:26.228Z,92.32
2022-12-23T19:35:54.063Z,40.30
2022-12-23T19:38:21.871Z,72.75
2022-12-23T19:40:57.425Z,49.72
2022-12-23T19:43:25.320Z,74.10
2022-12-23T19:45:59.270Z,77.82
2022-12-23T19:48:27.341Z,85.18
2022-12-23T19:50:59.003Z,77.93
2022-12-23T19:53:27.572Z,67.78
2022-12-23T19:55:59.162Z,82.25
2022-12-23T19:58:27.550Z,46.13
2022-12-23T20:01:07.724Z,44.80
2022-12-23T20:03:35.876Z,51.00
2022-12-23T20:06:04.031Z,34.70
2022-12-23T20:08:32.016Z,38.50
2022-12-23T20:11:05.077Z,38.70
2022-12-23T20:16:00.871Z,28.73
2022-12-23T20:18:30.430Z,29.85
2022-12-23T20:20:59.511Z,34.30
2022-12-23T20:23:28.566Z,26.20
2022-12-23T20:25:56.704Z,35.08
2022-12-23T20:28:24.805Z,29.45
2022-12-23T20:31:00.619Z,26.40
2022-12-23T20:33:30.170Z,19.00
2022-12-23T20:35:58.340Z,25.02
2022-12-23T20:38:26.285Z,26.23
2022-12-23T20:40:54.269Z,25.52
2022-12-23T20:43:22.301Z,21.90
2022-12-23T20:45:51.661Z,16.20
2022-12-23T20:48:21.577Z,17.48
2022-12-23T20:50:50.942Z,20.17
2022-12-23T20:53:18.941Z,21.02
2022-12-23T20:55:46.928Z,20.92
2022-12-23T20:58:32.809Z,16.85
2022-12-23T21:01:09.697Z,15.63
2022-12-23T21:03:37.691Z,15.63
2022-12-23T21:06:08.316Z,16.65
2022-12-23T21:08:37.712Z,143.80
2022-12-23T21:11:06.499Z,95.82
2022-12-23T21:13:35.479Z,126.45
2022-12-23T21:16:04.390Z,149.60
2022-12-23T21:18:32.906Z,117.35
2022-12-23T21:21:01.671Z,59.85
2022-12-23T21:23:31.180Z,53.53
2022-12-23T21:26:09.878Z,19.25
2022-12-23T21:28:38.332Z,17.88
2022-12-23T21:31:06.508Z,16.60
2022-12-23T21:33:36.380Z,15.05
2022-12-23T21:36:04.741Z,15.07
2022-12-23T21:38:35.445Z,14.77
2022-12-23T21:41:04.372Z,18.67
2022-12-23T21:43:32.357Z,19.67
2022-12-23T21:46:01.496Z,18.48
2022-12-23T21:48:31.659Z,19.58
2022-12-23T21:51:04.557Z,21.75
2022-12-23T21:56:03.771Z,16.75
2022-12-23T21:58:32.132Z,16.50
2022-12-23T22:01:00.568Z,21.77
2022-12-23T22:03:28.661Z,16.83
2022-12-23T22:05:56.528Z,19.05
2022-12-23T22:08:24.468Z,18.17
2022-12-23T22:10:53.648Z,19.42
2022-12-23T22:13:21.514Z,24.65
2022-12-23T22:15:49.487Z,17.88
2022-12-23T22:18:17.356Z,17.33
2022-12-23T22:20:46.455Z,17.58
2022-12-23T22:23:14.486Z,21.75
2022-12-23T22:25:42.404Z,18.42
2022-12-23T22:28:11.583Z,17.52
2022-12-23T22:30:39.398Z,17.95
2022-12-23T22:33:08.625Z,16.88
2022-12-23T22:35:36.443Z,18.05
2022-12-23T22:38:04.375Z,15.80
2022-12-23T22:40:32.246Z,17.80
2022-12-23T22:43:00.114Z,15.43
2022-12-23T22:45:29.384Z,16.23
2022-12-23T22:47:57.548Z,15.65
2022-12-23T22:50:25.397Z,16.08
2022-12-23T22:52:53.215Z,14.73
2022-12-23T22:55:21.191Z,15.07
2022-12-23T22:57:49.004Z,10.43
2022-12-23T23:00:17.390Z,14.45
2022-12-23T23:02:46.616Z,16.80
2022-12-23T23:05:14.552Z,18.48
2022-12-23T23:07:42.444Z,18.38
2022-12-23T23:10:11.178Z,14.55
2022-12-23T23:12:39.670Z,16.25
2022-12-23T23:15:08.700Z,16.65
2022-12-23T23:17:36.628Z,16.20
2022-12-23T23:20:06.808Z,13.68
2022-12-23T23:22:34.658Z,15.23
2022-12-23T23:25:02.483Z,14.40
2022-12-23T23:27:30.311Z,18.52
2022-12-23T23:29:58.158Z,14.23
2022-12-23T23:32:26.060Z,14.32
2022-12-23T23:34:53.892Z,19.65
2022-12-23T23:37:23.096Z,16.33
2022-12-23T23:39:51.496Z,19.02
2022-12-23T23:42:19.332Z,17.00
2022-12-23T23:44:47.155Z,16.40
2022-12-23T23:47:14.959Z,15.52
2022-12-23T23:49:42.812Z,19.23
2022-12-23T23:52:10.644Z,16.33
2022-12-23T23:54:39.843Z,18.52
2022-12-23T23:57:07.681Z,18.73
2022-12-23T23:59:35.610Z,14.98
